createdAt,value
2018-12-20T00:02:00.959Z,8.54
2018-12-20T00:04:30.790Z,8.53
2018-12-20T00:07:00.755Z,8.51
2018-12-20T00:09:30.500Z,8.54
2018-12-20T00:12:00.474Z,8.55
2018-12-20T00:14:30.292Z,8.50
2018-12-20T00:17:06.370Z,8.51
2018-12-20T00:19:38.235Z,8.46
2018-12-20T00:22:09.966Z,8.46
2018-12-20T00:24:39.816Z,8.44
2018-12-20T00:27:09.454Z,8.37
2018-12-20T00:29:39.087Z,8.36
2018-12-20T00:32:11.566Z,8.34
2018-12-20T00:34:41.421Z,8.33
2018-12-20T00:37:11.370Z,8.33
2018-12-20T00:39:41.026Z,8.30
2018-12-20T00:42:10.668Z,8.26
2018-12-20T00:44:40.504Z,8.24
2018-12-20T00:47:10.314Z,8.22
2018-12-20T00:49:40.303Z,8.15
2018-12-20T00:52:11.130Z,8.15
2018-12-20T00:54:41.005Z,8.16
2018-12-20T00:57:10.900Z,8.13
2018-12-20T00:59:40.792Z,8.10
2018-12-20T01:02:10.762Z,8.06
2018-12-20T01:04:40.741Z,8.06
2018-12-20T01:07:10.571Z,8.04
2018-12-20T01:09:40.331Z,8.02
2018-12-20T01:12:10.227Z,8.00
2018-12-20T01:14:45.369Z,7.98
2018-12-20T01:17:11.631Z,7.94
2018-12-20T01:19:41.796Z,7.92
2018-12-20T01:22:11.671Z,7.93
2018-12-20T01:24:41.720Z,7.89
2018-12-20T01:27:11.602Z,7.90
2018-12-20T01:29:41.174Z,7.90
2018-12-20T01:32:10.885Z,7.88
2018-12-20T01:34:40.903Z,7.89
2018-12-20T01:37:11.077Z,7.88
2018-12-20T01:39:41.140Z,7.88
2018-12-20T01:42:11.013Z,7.92
2018-12-20T01:44:41.061Z,7.95
2018-12-20T01:47:11.580Z,7.92
2018-12-20T01:49:43.981Z,7.94
2018-12-20T01:52:13.689Z,7.97
2018-12-20T01:54:43.523Z,7.98
2018-12-20T01:57:13.353Z,7.96
2018-12-20T01:59:43.594Z,8.00
2018-12-20T02:02:13.584Z,7.97
2018-12-20T02:04:43.424Z,7.97
2018-12-20T02:07:16.302Z,8.00
2018-12-20T02:09:46.157Z,8.00
2018-12-20T02:12:16.123Z,8.00
2018-12-20T02:14:45.951Z,7.99
2018-12-20T02:17:16.002Z,7.97
2018-12-20T02:19:45.739Z,7.93
2018-12-20T02:22:15.417Z,7.96
2018-12-20T02:24:45.409Z,7.96
2018-12-20T02:27:15.311Z,7.94
2018-12-20T02:29:45.235Z,7.94
2018-12-20T02:32:15.104Z,7.94
2018-12-20T02:34:45.026Z,7.95
2018-12-20T02:37:16.060Z,7.97
2018-12-20T02:39:45.665Z,7.99
2018-12-20T02:42:15.556Z,7.98
2018-12-20T02:44:45.410Z,7.96
2018-12-20T02:47:14.985Z,8.01
2018-12-20T02:49:44.617Z,7.98
2018-12-20T02:52:14.620Z,7.98
2018-12-20T02:54:44.455Z,8.02
2018-12-20T02:57:14.105Z,8.01
2018-12-20T02:59:43.795Z,8.02
2018-12-20T03:02:13.393Z,8.03
2018-12-20T03:04:43.640Z,8.01
2018-12-20T03:07:13.637Z,8.00
2018-12-20T03:09:43.964Z,7.99
2018-12-20T03:12:15.151Z,7.96
2018-12-20T03:14:45.004Z,7.92
2018-12-20T03:17:14.633Z,7.90
2018-12-20T03:19:44.602Z,7.93
2018-12-20T03:22:14.760Z,7.91
2018-12-20T03:24:44.755Z,7.88
2018-12-20T03:27:14.627Z,7.85
2018-12-20T03:29:44.508Z,7.85
2018-12-20T03:32:14.389Z,7.82
2018-12-20T03:34:45.060Z,7.87
2018-12-20T03:37:14.910Z,7.88
2018-12-20T03:39:44.671Z,7.90
2018-12-20T03:42:14.459Z,7.91
2018-12-20T03:44:44.289Z,7.91
2018-12-20T03:47:14.224Z,7.88
2018-12-20T03:49:44.390Z,7.86
2018-12-20T03:52:14.283Z,7.86
2018-12-20T03:54:44.488Z,7.85
2018-12-20T03:57:14.562Z,7.90
2018-12-20T03:59:44.628Z,7.90
2018-12-20T04:02:16.513Z,7.92
2018-12-20T04:04:46.478Z,7.95
2018-12-20T04:07:16.299Z,7.93
2018-12-20T04:09:45.928Z,7.95
2018-12-20T04:12:15.835Z,7.97
2018-12-20T04:14:45.746Z,8.00
2018-12-20T04:17:17.044Z,8.02
2018-12-20T04:19:47.577Z,8.02
2018-12-20T04:22:17.368Z,8.04
2018-12-20T04:24:47.314Z,8.05
2018-12-20T04:27:17.197Z,8.06
2018-12-20T04:29:46.800Z,8.04
2018-12-20T04:32:16.507Z,8.03
2018-12-20T04:34:46.531Z,8.05
2018-12-20T04:37:16.627Z,8.10
2018-12-20T04:39:46.653Z,8.10
2018-12-20T04:42:16.250Z,8.06
2018-12-20T04:44:45.868Z,8.06
2018-12-20T04:47:15.746Z,8.08
2018-12-20T04:49:45.350Z,8.08
2018-12-20T04:52:15.661Z,8.11
2018-12-20T04:54:45.622Z,8.10
2018-12-20T04:57:15.438Z,8.11
2018-12-20T04:59:45.317Z,8.11
2018-12-20T05:02:15.331Z,8.12
2018-12-20T05:04:45.169Z,8.15
2018-12-20T05:07:14.799Z,8.16
2018-12-20T05:09:44.368Z,8.20
2018-12-20T05:12:14.048Z,8.20
2018-12-20T05:14:44.795Z,8.20
2018-12-20T05:17:14.781Z,8.21
2018-12-20T05:19:44.469Z,8.20
2018-12-20T05:22:14.699Z,8.18
2018-12-20T05:24:44.717Z,8.17
2018-12-20T05:27:18.066Z,8.19
2018-12-20T05:29:48.141Z,8.24
2018-12-20T05:32:18.126Z,8.24
2018-12-20T05:34:47.997Z,8.23
2018-12-20T05:37:17.583Z,8.21
2018-12-20T05:39:47.748Z,8.20
2018-12-20T05:42:17.895Z,8.20
2018-12-20T05:44:47.862Z,8.23
2018-12-20T05:47:17.801Z,8.23
2018-12-20T05:49:47.686Z,8.25
2018-12-20T05:52:17.586Z,8.27
2018-12-20T05:54:47.491Z,8.26
2018-12-20T05:57:18.616Z,8.27
2018-12-20T05:59:48.426Z,8.25
2018-12-20T06:02:18.603Z,8.27
2018-12-20T06:04:48.229Z,8.24
2018-12-20T06:07:17.839Z,8.25
2018-12-20T06:09:47.632Z,8.26
2018-12-20T06:12:18.108Z,8.25
2018-12-20T06:14:47.965Z,8.26
2018-12-20T06:17:17.594Z,8.24
2018-12-20T06:19:47.439Z,8.20
2018-12-20T06:22:17.602Z,8.21
2018-12-20T06:24:47.499Z,8.16
2018-12-20T06:27:17.095Z,8.20
2018-12-20T06:29:46.698Z,8.20
2018-12-20T06:32:16.286Z,8.20
2018-12-20T06:34:45.871Z,8.17
2018-12-20T06:37:15.548Z,8.16
2018-12-20T06:39:45.155Z,8.09
2018-12-20T06:42:14.774Z,8.09
2018-12-20T06:44:44.452Z,8.10
2018-12-20T06:47:14.291Z,8.07
2018-12-20T06:49:43.883Z,8.06
2018-12-20T06:52:13.493Z,8.05
2018-12-20T06:54:43.207Z,8.06
2018-12-20T06:57:12.790Z,8.04
2018-12-20T06:59:42.447Z,8.05
2018-12-20T07:02:14.203Z,8.02
2018-12-20T07:04:44.166Z,8.03
2018-12-20T07:07:13.783Z,8.01
2018-12-20T07:09:43.470Z,8.02
2018-12-20T07:12:13.405Z,7.95
2018-12-20T07:14:43.055Z,8.00
2018-12-20T07:17:12.640Z,8.01
2018-12-20T07:19:42.339Z,7.95
2018-12-20T07:22:11.952Z,7.97
2018-12-20T07:24:41.561Z,7.96
2018-12-20T07:27:11.164Z,8.00
2018-12-20T07:29:40.786Z,7.97
2018-12-20T07:32:10.401Z,7.93
2018-12-20T07:34:47.917Z,7.94
2018-12-20T07:37:14.856Z,7.96
2018-12-20T07:39:45.311Z,7.95
2018-12-20T07:42:16.663Z,7.94
2018-12-20T07:44:46.256Z,7.94
2018-12-20T07:47:16.023Z,7.93
2018-12-20T07:49:45.632Z,7.92
2018-12-20T07:52:15.273Z,7.89
2018-12-20T07:54:46.841Z,7.85
2018-12-20T07:57:16.417Z,7.89
2018-12-20T07:59:46.050Z,7.88
2018-12-20T08:02:15.709Z,7.93
2018-12-20T08:04:45.320Z,7.92
2018-12-20T08:07:14.921Z,7.93
2018-12-20T08:09:44.522Z,7.92
2018-12-20T08:12:14.882Z,7.92
2018-12-20T08:14:44.579Z,7.93
2018-12-20T08:17:15.316Z,7.90
2018-12-20T08:19:45.342Z,7.88
2018-12-20T08:22:15.407Z,7.87
2018-12-20T08:24:45.709Z,7.90
2018-12-20T08:27:15.292Z,7.95
2018-12-20T08:29:44.994Z,7.99
2018-12-20T08:32:14.719Z,7.98
2018-12-20T08:34:44.326Z,7.99
2018-12-20T08:37:15.890Z,7.99
2018-12-20T08:39:45.490Z,7.98
2018-12-20T08:42:17.646Z,8.03
2018-12-20T08:44:47.227Z,8.07
2018-12-20T08:47:16.843Z,8.06
2018-12-20T08:49:46.447Z,8.05
2018-12-20T08:52:19.557Z,8.03
2018-12-20T08:54:49.269Z,8.07
2018-12-20T08:57:18.853Z,8.12
2018-12-20T08:59:48.459Z,8.11
2018-12-20T09:02:18.119Z,8.12
2018-12-20T09:04:47.719Z,8.15
2018-12-20T09:07:17.325Z,8.16
2018-12-20T09:09:46.915Z,8.19
2018-12-20T09:12:16.668Z,8.20
2018-12-20T09:14:47.079Z,8.14
2018-12-20T09:17:19.353Z,8.20
2018-12-20T09:19:48.916Z,8.23
2018-12-20T09:22:18.496Z,8.20
2018-12-20T09:24:48.124Z,8.20
2018-12-20T09:27:17.747Z,8.21
2018-12-20T09:29:51.139Z,8.29
2018-12-20T09:32:20.836Z,8.28
2018-12-20T09:34:50.472Z,8.33
2018-12-20T09:37:20.175Z,8.33
2018-12-20T09:39:49.773Z,8.31
2018-12-20T09:42:19.429Z,8.34
2018-12-20T09:44:54.488Z,8.40
2018-12-20T09:47:31.875Z,8.37
2018-12-20T09:50:01.455Z,8.48
2018-12-20T09:52:31.075Z,8.44
2018-12-20T09:55:00.669Z,8.45
2018-12-20T09:57:30.267Z,8.47
2018-12-20T09:59:59.851Z,8.49
2018-12-20T10:02:29.666Z,8.52
2018-12-20T10:04:59.500Z,8.54
2018-12-20T10:07:29.148Z,8.58
2018-12-20T10:09:58.795Z,8.59
2018-12-20T10:12:29.010Z,8.61
2018-12-20T10:14:59.788Z,8.63
2018-12-20T10:17:29.477Z,8.65
2018-12-20T10:19:59.735Z,8.65
2018-12-20T10:22:29.419Z,8.67
2018-12-20T10:25:02.110Z,8.71
2018-12-20T10:27:33.467Z,8.80
2018-12-20T10:30:03.091Z,8.81
2018-12-20T10:32:34.808Z,8.89
2018-12-20T10:35:06.131Z,8.79
2018-12-20T10:37:36.759Z,8.83
2018-12-20T10:40:06.582Z,8.81
2018-12-20T10:42:36.908Z,8.75
2018-12-20T10:45:08.083Z,8.81
2018-12-20T10:47:39.468Z,8.79
2018-12-20T10:50:09.537Z,8.71
2018-12-20T10:52:44.462Z,8.72
2018-12-20T10:55:14.022Z,8.80
2018-12-20T10:57:44.473Z,8.83
2018-12-20T11:00:15.329Z,8.84
2018-12-20T11:02:50.257Z,8.82
2018-12-20T11:05:23.009Z,8.85
2018-12-20T11:07:57.123Z,8.88
2018-12-20T11:10:28.576Z,8.89
2018-12-20T11:13:02.552Z,8.88
2018-12-20T11:15:32.168Z,8.89
2018-12-20T11:18:03.110Z,8.91
2018-12-20T11:20:32.715Z,8.92
2018-12-20T11:23:02.383Z,8.90
2018-12-20T11:25:32.010Z,8.90
2018-12-20T11:28:01.691Z,8.84
2018-12-20T11:30:31.295Z,8.87
2018-12-20T11:33:00.880Z,8.82
2018-12-20T11:35:30.461Z,8.83
2018-12-20T11:38:02.631Z,8.86
2018-12-20T11:40:32.189Z,8.87
2018-12-20T11:43:02.642Z,8.87
2018-12-20T11:48:15.157Z,8.83
2018-12-20T11:50:48.713Z,8.82
2018-12-20T11:53:22.154Z,8.89
2018-12-20T11:55:51.721Z,8.92
2018-12-20T11:58:22.265Z,8.87
2018-12-20T12:00:51.900Z,8.88
2018-12-20T12:03:21.482Z,8.91
2018-12-20T12:05:51.963Z,8.94
2018-12-20T12:08:21.639Z,8.87
2018-12-20T12:10:52.038Z,8.91
2018-12-20T12:13:22.028Z,8.98
2018-12-20T12:15:52.011Z,8.92
2018-12-20T12:18:25.305Z,8.92
2018-12-20T12:20:55.185Z,8.99
2018-12-20T12:23:24.944Z,9.02
2018-12-20T12:25:57.311Z,9.07
2018-12-20T12:28:27.520Z,9.07
2018-12-20T12:30:57.677Z,9.05
2018-12-20T12:33:27.361Z,9.09
2018-12-20T12:35:57.014Z,9.05
2018-12-20T12:38:26.618Z,9.02
2018-12-20T12:40:56.513Z,9.13
2018-12-20T12:43:26.101Z,9.15
2018-12-20T12:45:55.749Z,9.07
2018-12-20T12:48:25.437Z,9.11
2018-12-20T12:50:55.063Z,9.07
2018-12-20T12:53:24.707Z,9.10
2018-12-20T12:55:54.418Z,9.10
2018-12-20T12:58:24.026Z,9.13
2018-12-20T13:00:53.752Z,9.10
2018-12-20T13:03:23.702Z,9.07
2018-12-20T13:05:53.352Z,9.06
2018-12-20T13:08:23.208Z,9.10
2018-12-20T13:10:52.896Z,9.05
2018-12-20T13:13:22.525Z,9.07
2018-12-20T13:15:52.553Z,9.10
2018-12-20T13:18:22.168Z,9.11
2018-12-20T13:20:51.847Z,9.06
2018-12-20T13:23:21.562Z,9.06
2018-12-20T13:25:51.172Z,9.10
2018-12-20T13:28:20.811Z,9.10
2018-12-20T13:30:50.447Z,9.10
2018-12-20T13:33:20.183Z,9.01
2018-12-20T13:35:49.775Z,9.06
2018-12-20T13:38:19.509Z,9.11
2018-12-20T13:40:49.152Z,9.14
2018-12-20T13:43:18.740Z,9.06
2018-12-20T13:45:48.366Z,9.09
2018-12-20T13:48:22.199Z,9.05
2018-12-20T13:50:49.597Z,8.97
2018-12-20T13:53:19.189Z,9.01
2018-12-20T13:55:48.814Z,9.02
2018-12-20T13:58:18.496Z,8.99
2018-12-20T14:00:48.123Z,8.96
2018-12-20T14:03:18.210Z,9.01
2018-12-20T14:05:47.813Z,9.00
2018-12-20T14:08:17.452Z,8.99
2018-12-20T14:10:47.065Z,8.93
2018-12-20T14:13:16.923Z,8.92
2018-12-20T14:15:46.542Z,8.90
2018-12-20T14:18:16.142Z,8.86
2018-12-20T14:20:45.918Z,8.90
2018-12-20T14:23:15.569Z,8.90
2018-12-20T14:25:45.190Z,8.85
2018-12-20T14:28:14.879Z,8.90
2018-12-20T14:30:44.473Z,8.90
2018-12-20T14:33:14.147Z,8.91
2018-12-20T14:35:43.895Z,8.93
2018-12-20T14:38:13.531Z,8.91
2018-12-20T14:40:43.168Z,8.92
2018-12-20T14:43:13.784Z,8.94
2018-12-20T14:45:43.383Z,8.95
2018-12-20T14:48:14.744Z,8.94
2018-12-20T14:50:44.332Z,8.91
2018-12-20T14:53:13.959Z,8.91
2018-12-20T14:55:43.576Z,8.73
2018-12-20T14:58:13.221Z,8.80
2018-12-20T15:00:43.004Z,8.78
2018-12-20T15:03:12.712Z,8.76
2018-12-20T15:05:42.332Z,8.80
2018-12-20T15:08:12.023Z,8.77
2018-12-20T15:10:41.701Z,8.76
2018-12-20T15:13:11.297Z,8.70
2018-12-20T15:15:40.987Z,8.67
2018-12-20T15:18:10.547Z,8.70
2018-12-20T15:20:40.663Z,8.69
2018-12-20T15:23:10.920Z,8.64
2018-12-20T15:25:40.536Z,8.63
2018-12-20T15:28:10.139Z,8.65
2018-12-20T15:30:39.814Z,8.56
2018-12-20T15:33:09.501Z,8.57
2018-12-20T15:35:39.100Z,8.59
2018-12-20T15:38:08.723Z,8.54
2018-12-20T15:40:38.407Z,8.41
2018-12-20T15:43:08.304Z,8.35
2018-12-20T15:45:37.983Z,8.31
2018-12-20T15:48:07.665Z,8.40
2018-12-20T15:50:37.235Z,8.40
2018-12-20T15:53:06.943Z,8.40
2018-12-20T15:55:36.601Z,8.43
2018-12-20T15:58:06.381Z,8.41
2018-12-20T16:00:36.019Z,8.43
2018-12-20T16:03:05.820Z,8.39
2018-12-20T16:05:35.427Z,8.38
2018-12-20T16:08:06.516Z,8.29
2018-12-20T16:10:36.193Z,8.31
2018-12-20T16:13:05.842Z,8.28
2018-12-20T16:15:35.591Z,8.30
2018-12-20T16:18:06.721Z,8.30
2018-12-20T16:20:36.361Z,8.29
2018-12-20T16:23:06.659Z,8.28
2018-12-20T16:25:36.373Z,8.26
2018-12-20T16:28:06.199Z,8.23
2018-12-20T16:30:36.034Z,8.20
2018-12-20T16:33:05.657Z,8.18
2018-12-20T16:35:35.260Z,8.19
2018-12-20T16:38:04.915Z,8.19
2018-12-20T16:40:34.520Z,8.15
2018-12-20T16:43:04.120Z,8.14
2018-12-20T16:45:33.745Z,8.14
2018-12-20T16:48:03.366Z,8.13
2018-12-20T16:50:32.965Z,8.11
2018-12-20T16:53:02.567Z,8.13
2018-12-20T16:55:32.180Z,8.13
2018-12-20T16:58:01.807Z,8.08
2018-12-20T17:00:31.428Z,8.06
2018-12-20T17:03:01.098Z,8.06
2018-12-20T17:05:30.735Z,8.05
2018-12-20T17:08:00.489Z,8.00
2018-12-20T17:10:30.096Z,8.02
2018-12-20T17:12:59.707Z,8.01
2018-12-20T17:15:29.419Z,8.01
2018-12-20T17:17:59.224Z,8.02
2018-12-20T17:20:28.891Z,8.02
2018-12-20T17:22:58.469Z,8.08
2018-12-20T17:25:28.063Z,8.09
2018-12-20T17:27:57.689Z,8.06
2018-12-20T17:30:27.325Z,8.09
2018-12-20T17:32:56.919Z,8.11
2018-12-20T17:35:26.550Z,8.02
2018-12-20T17:37:56.223Z,8.06
2018-12-20T17:40:25.851Z,8.02
2018-12-20T17:42:55.467Z,8.05
2018-12-20T17:45:25.087Z,8.08
2018-12-20T17:47:54.676Z,7.98
2018-12-20T17:50:24.503Z,8.03
2018-12-20T17:52:54.227Z,8.07
2018-12-20T17:55:23.964Z,8.00
2018-12-20T17:57:53.758Z,8.00
2018-12-20T18:00:23.346Z,7.97
2018-12-20T18:02:53.073Z,8.00
2018-12-20T18:05:22.701Z,7.97
2018-12-20T18:07:52.356Z,8.00
2018-12-20T18:10:22.059Z,7.99
2018-12-20T18:12:51.770Z,7.99
2018-12-20T18:15:21.393Z,8.05
2018-12-20T18:17:51.041Z,8.00
2018-12-20T18:20:21.226Z,7.97
2018-12-20T18:22:50.836Z,7.98
2018-12-20T18:25:20.555Z,8.05
2018-12-20T18:27:51.884Z,8.00
2018-12-20T18:30:21.525Z,8.01
2018-12-20T18:35:26.174Z,8.02
2018-12-20T18:37:55.827Z,7.92
2018-12-20T18:40:25.466Z,7.94
2018-12-20T18:42:55.210Z,7.93
2018-12-20T18:45:24.920Z,7.98
2018-12-20T18:47:54.521Z,7.97
2018-12-20T18:50:24.177Z,8.01
2018-12-20T18:52:54.254Z,7.99
2018-12-20T18:57:59.522Z,8.00
2018-12-20T19:00:35.973Z,7.98
2018-12-20T19:03:07.995Z,8.01
2018-12-20T19:05:38.259Z,7.95
2018-12-20T19:08:07.922Z,7.99
2018-12-20T19:10:37.615Z,7.99
2018-12-20T19:13:07.216Z,7.97
2018-12-20T19:18:10.503Z,7.98
2018-12-20T19:20:40.256Z,7.99
2018-12-20T19:23:10.856Z,8.01
2018-12-20T19:25:40.731Z,8.06
2018-12-20T19:28:10.334Z,8.04
2018-12-20T19:30:39.965Z,8.04
2018-12-20T19:33:09.726Z,8.09
2018-12-20T19:35:39.331Z,8.06
2018-12-20T19:38:08.963Z,8.11
2018-12-20T19:40:38.599Z,8.06
2018-12-20T19:43:08.214Z,8.06
2018-12-20T19:45:45.831Z,8.04
2018-12-20T19:48:09.459Z,8.06
2018-12-20T19:50:39.252Z,8.10
2018-12-20T19:53:08.868Z,8.11
2018-12-20T19:55:38.480Z,8.12
2018-12-20T19:58:08.156Z,8.12
2018-12-20T20:00:37.831Z,8.09
2018-12-20T20:03:07.434Z,8.07
2018-12-20T20:05:37.092Z,8.11
2018-12-20T20:08:06.757Z,8.13
2018-12-20T20:10:36.361Z,8.12
2018-12-20T20:13:06.009Z,8.13
2018-12-20T20:15:35.847Z,8.14
2018-12-20T20:18:05.422Z,8.17
2018-12-20T20:20:35.046Z,8.20
2018-12-20T20:23:05.292Z,8.17
2018-12-20T20:25:34.869Z,8.15
2018-12-20T20:28:04.565Z,8.15
2018-12-20T20:30:34.282Z,8.06
2018-12-20T20:33:05.795Z,8.12
2018-12-20T20:35:38.042Z,8.13
2018-12-20T20:38:09.394Z,8.13
2018-12-20T20:40:40.157Z,8.10
2018-12-20T20:43:11.386Z,8.09
2018-12-20T20:45:42.494Z,8.07
2018-12-20T20:48:12.981Z,8.11
2018-12-20T20:50:42.782Z,8.11
2018-12-20T20:53:13.456Z,8.14
2018-12-20T20:55:44.493Z,8.10
2018-12-20T20:58:14.432Z,8.04
2018-12-20T21:00:45.418Z,8.16
2018-12-20T21:03:16.562Z,8.10
2018-12-20T21:05:48.865Z,8.14
2018-12-20T21:08:20.344Z,8.18
2018-12-20T21:10:51.800Z,8.16
2018-12-20T21:13:22.374Z,8.12
2018-12-20T21:15:53.244Z,8.12
2018-12-20T21:18:24.322Z,8.19
2018-12-20T21:20:55.040Z,8.21
2018-12-20T21:23:25.796Z,8.20
2018-12-20T21:25:56.129Z,8.23
2018-12-20T21:28:27.676Z,8.18
2018-12-20T21:30:58.174Z,8.17
2018-12-20T21:33:29.014Z,8.25
2018-12-20T21:36:00.670Z,8.25
2018-12-20T21:38:31.758Z,8.25
2018-12-20T21:41:02.763Z,8.29
2018-12-20T21:43:33.607Z,8.30
2018-12-20T21:46:04.618Z,8.26
2018-12-20T21:48:35.593Z,8.27
2018-12-20T21:51:06.354Z,8.26
2018-12-20T21:53:37.556Z,8.26
2018-12-20T21:56:09.750Z,8.21
